Aviation Digital Data Service (ADDS)

Output produced by METARs form (0837 UTC 22 July 2018)
found at http://aviationweather.gov/adds/metars/
 
KUTS 220520Z 2206/2306 21007KT P6SM SCT250